Time;durP1;ratioP1;P1;durP2;ratioP2;P2;SDS_P1;SDS_P2;PMS_P1;PMS_P2;Temp;Humidity;BMP_temperature;BMP_pressure;BME280_temperature;BME280_humidity;BME280_pressure;Samples;Min_cycle;Max_cycle;Signal;HPM_P1;HPM_P2
2022/08/28 00:01:08;;;;;;;6.90;1.33;;;16.20;99.90;;;;;;4977467;28;20512;-70
2022/08/28 00:03:34;;;;;;;4.07;1.30;;;16.20;99.90;;;;;;4974982;28;20049;-70
2022/08/28 00:06:01;;;;;;;5.95;1.95;;;16.20;99.90;;;;;;4975235;28;20404;-70
2022/08/28 00:08:29;;;;;;;8.75;1.10;;;16.20;99.90;;;;;;5008960;28;20402;-71
2022/08/28 00:10:55;;;;;;;8.95;1.20;;;16.10;99.90;;;;;;4975440;28;20309;-70
2022/08/28 00:13:24;;;;;;;2.97;0.80;;;16.10;99.90;;;;;;4976202;28;20034;-69
2022/08/28 00:15:53;;;;;;;5.35;1.00;;;16.10;99.90;;;;;;4985679;28;20049;-71
2022/08/28 00:18:19;;;;;;;4.28;1.40;;;16.10;99.90;;;;;;4994536;28;20023;-69
2022/08/28 00:20:46;;;;;;;5.35;1.10;;;16.10;99.90;;;;;;4994101;28;20031;-70
2022/08/28 00:23:12;;;;;;;4.07;1.15;;;16.00;99.90;;;;;;4978616;28;20042;-70
2022/08/28 00:25:37;;;;;;;8.25;0.95;;;16.00;99.90;;;;;;4981802;28;20038;-71
2022/08/28 00:28:06;;;;;;;5.93;1.20;;;16.00;99.90;;;;;;4976205;28;20035;-71
2022/08/28 00:30:39;;;;;;;7.35;1.50;;;16.00;99.90;;;;;;4977369;28;20243;-70
2022/08/28 00:33:17;;;;;;;8.85;0.90;;;15.90;99.90;;;;;;5006197;28;20046;-68
2022/08/28 00:35:43;;;;;;;4.63;0.90;;;15.90;99.90;;;;;;4978482;28;20446;-71
2022/08/28 00:38:10;;;;;;;3.47;1.02;;;15.90;99.90;;;;;;4978252;28;20090;-71
2022/08/28 00:40:37;;;;;;;4.97;1.08;;;15.90;99.90;;;;;;4976370;28;20038;-71
2022/08/28 00:43:04;;;;;;;7.38;1.63;;;15.90;99.90;;;;;;4976023;28;20070;-71
2022/08/28 00:45:31;;;;;;;7.43;1.55;;;15.80;99.90;;;;;;4977075;28;20034;-69
2022/08/28 00:47:57;;;;;;;8.35;0.95;;;15.80;99.90;;;;;;4974354;28;20031;-72
2022/08/28 00:50:27;;;;;;;4.20;1.75;;;15.80;99.90;;;;;;4978227;28;20035;-72
2022/08/28 00:52:58;;;;;;;6.55;1.55;;;15.80;99.90;;;;;;4974399;28;20460;-71
2022/08/28 00:55:26;;;;;;;6.95;1.13;;;15.80;99.90;;;;;;4981124;28;20054;-71
2022/08/28 00:57:55;;;;;;;4.80;1.00;;;15.70;99.90;;;;;;5009505;28;20033;-70
2022/08/28 01:00:33;;;;;;;5.28;1.00;;;15.80;99.90;;;;;;4980904;28;20121;-71
2022/08/28 01:03:00;;;;;;;7.30;1.00;;;15.70;99.90;;;;;;4981330;28;20620;-71
2022/08/28 01:05:27;;;;;;;3.15;0.70;;;15.80;99.90;;;;;;4989835;28;20022;-72
2022/08/28 01:07:56;;;;;;;8.23;1.27;;;15.70;99.90;;;;;;4986766;28;20031;-71
2022/08/28 01:10:23;;;;;;;4.35;1.63;;;15.70;99.90;;;;;;4988580;28;20035;-70
2022/08/28 01:12:49;;;;;;;7.68;1.60;;;15.80;99.90;;;;;;4976266;28;20035;-71
2022/08/28 01:15:19;;;;;;;4.95;0.90;;;15.80;99.90;;;;;;4981134;28;20034;-71
2022/08/28 01:17:51;;;;;;;3.42;0.88;;;15.80;99.90;;;;;;4979614;28;20045;-72
2022/08/28 01:20:22;;;;;;;3.10;1.33;;;15.70;99.90;;;;;;4981362;28;20023;-71
2022/08/28 01:23:21;;;;;;;7.05;0.90;;;15.70;99.90;;;;;;4980563;28;20054;-71
2022/08/28 01:25:46;;;;;;;5.90;1.10;;;15.70;99.90;;;;;;4991448;28;20034;-71
2022/08/28 01:28:13;;;;;;;6.40;1.17;;;15.70;99.90;;;;;;4981216;28;20026;-71
2022/08/28 01:30:43;;;;;;;6.18;1.10;;;15.60;99.90;;;;;;5008671;28;20094;-73
2022/08/28 01:33:09;;;;;;;4.63;0.88;;;15.60;99.90;;;;;;4978016;28;20044;-71
2022/08/28 01:35:37;;;;;;;9.30;0.70;;;15.60;99.90;;;;;;4983469;28;20026;-71
2022/08/28 01:38:03;;;;;;;2.85;0.70;;;15.60;99.90;;;;;;4984283;28;20077;-71
2022/08/28 01:40:35;;;;;;;4.63;1.23;;;15.60;99.90;;;;;;4984080;28;20121;-72
2022/08/28 01:43:15;;;;;;;4.80;1.13;;;15.60;99.90;;;;;;4977382;28;20085;-69
2022/08/28 01:45:43;;;;;;;4.30;0.90;;;15.60;99.90;;;;;;4980467;28;20038;-70
2022/08/28 01:48:10;;;;;;;5.47;1.25;;;15.50;99.90;;;;;;4977414;28;20085;-71
2022/08/28 01:50:36;;;;;;;4.50;0.70;;;15.50;99.90;;;;;;4979872;28;20034;-71
2022/08/28 01:53:03;;;;;;;7.75;0.75;;;15.50;99.90;;;;;;5011703;28;20126;-70
2022/08/28 01:55:31;;;;;;;4.70;0.85;;;15.50;99.90;;;;;;4985238;28;20090;-71
2022/08/28 01:57:57;;;;;;;5.47;0.80;;;15.40;99.90;;;;;;4980725;28;20127;-71
2022/08/28 02:00:26;;;;;;;4.65;1.38;;;15.40;99.90;;;;;;4983926;28;20073;-69
2022/08/28 02:02:54;;;;;;;2.22;0.82;;;15.40;99.90;;;;;;4976758;28;20035;-69
2022/08/28 02:05:26;;;;;;;5.53;0.70;;;15.40;99.90;;;;;;4978719;28;20030;-71
2022/08/28 02:07:51;;;;;;;7.75;1.30;;;15.40;99.90;;;;;;4977313;28;20085;-71
2022/08/28 02:10:19;;;;;;;6.10;0.90;;;15.30;99.90;;;;;;4979613;28;20042;-70
2022/08/28 02:12:44;;;;;;;4.75;0.93;;;15.30;99.90;;;;;;4975733;28;20023;-71
2022/08/28 02:15:11;;;;;;;5.70;0.73;;;15.30;99.90;;;;;;4979573;28;20018;-70
2022/08/28 02:17:37;;;;;;;6.05;1.65;;;15.20;99.90;;;;;;4976819;28;20039;-71
2022/08/28 02:20:05;;;;;;;7.03;1.02;;;15.20;99.90;;;;;;4976787;28;20043;-71
2022/08/28 02:22:30;;;;;;;9.02;0.90;;;15.20;99.90;;;;;;4975243;28;20086;-71
2022/08/28 02:24:56;;;;;;;3.47;0.85;;;15.20;99.90;;;;;;4979869;28;20038;-71
2022/08/28 02:27:21;;;;;;;3.03;0.70;;;15.10;99.90;;;;;;4979759;28;20062;-71
2022/08/28 02:29:47;;;;;;;5.28;1.10;;;15.10;99.90;;;;;;4976772;28;20030;-70
2022/08/28 02:32:13;;;;;;;3.00;0.93;;;15.10;99.90;;;;;;4974635;28;20039;-71
2022/08/28 02:34:40;;;;;;;4.85;0.90;;;15.00;99.90;;;;;;4978958;28;20507;-71
2022/08/28 02:37:07;;;;;;;6.50;0.90;;;15.00;99.90;;;;;;4975717;28;20042;-70
2022/08/28 02:39:33;;;;;;;7.90;1.50;;;15.00;99.90;;;;;;4978770;28;20507;-69
2022/08/28 02:41:59;;;;;;;6.75;1.65;;;14.90;99.90;;;;;;4976215;28;20141;-71
2022/08/28 02:44:24;;;;;;;3.83;1.27;;;14.90;99.90;;;;;;4975445;28;20039;-72
2022/08/28 02:46:51;;;;;;;7.53;0.95;;;14.80;99.90;;;;;;4978483;28;20039;-71
2022/08/28 02:49:17;;;;;;;7.22;1.55;;;14.80;99.90;;;;;;4976105;28;20126;-71
2022/08/28 02:51:43;;;;;;;2.38;0.60;;;14.80;99.90;;;;;;4979499;28;20110;-72
2022/08/28 02:54:08;;;;;;;4.38;0.70;;;14.70;99.90;;;;;;4981203;28;20604;-71
2022/08/28 02:56:34;;;;;;;4.93;1.00;;;14.70;99.90;;;;;;4982651;28;20414;-71
2022/08/28 02:58:59;;;;;;;7.35;1.10;;;14.70;99.90;;;;;;4979408;28;20038;-70
2022/08/28 03:01:25;;;;;;;3.35;0.95;;;14.60;99.90;;;;;;4977294;28;20398;-70
2022/08/28 03:03:51;;;;;;;4.88;1.00;;;14.60;99.90;;;;;;4975760;28;20070;-71
2022/08/28 03:06:16;;;;;;;2.80;0.73;;;14.60;99.90;;;;;;4978952;28;20034;-70
2022/08/28 03:08:43;;;;;;;8.55;1.15;;;14.50;99.90;;;;;;4975271;28;20038;-70
2022/08/28 03:11:09;;;;;;;2.20;1.00;;;14.50;99.90;;;;;;4978534;28;20046;-71
2022/08/28 03:13:34;;;;;;;2.33;0.90;;;14.50;99.90;;;;;;5005538;28;20110;-69
2022/08/28 03:16:00;;;;;;;3.58;0.80;;;14.40;99.90;;;;;;4975461;28;20137;-70
2022/08/28 03:18:29;;;;;;;18.20;2.28;;;14.40;99.90;;;;;;4976132;28;20034;-70
2022/08/28 03:20:55;;;;;;;6.78;1.13;;;14.30;99.90;;;;;;4975133;28;20042;-69
2022/08/28 03:23:27;;;;;;;4.05;0.65;;;14.40;99.90;;;;;;4974563;28;20041;-69
2022/08/28 03:25:59;;;;;;;6.32;0.90;;;14.30;99.90;;;;;;4995288;28;20026;-71
2022/08/28 03:28:28;;;;;;;6.25;1.10;;;14.30;99.90;;;;;;4987402;28;20034;-71
2022/08/28 03:30:54;;;;;;;4.93;0.90;;;14.30;99.90;;;;;;4982694;28;20057;-70
2022/08/28 03:33:20;;;;;;;2.97;0.85;;;14.20;99.90;;;;;;4980408;28;20518;-70
2022/08/28 03:35:46;;;;;;;5.00;1.10;;;14.20;99.90;;;;;;4981185;28;20027;-71
2022/08/28 03:38:11;;;;;;;10.75;1.70;;;14.20;99.90;;;;;;4982091;28;20034;-69
2022/08/28 03:40:42;;;;;;;5.38;0.85;;;14.20;99.90;;;;;;4973614;28;20038;-71
2022/08/28 03:43:10;;;;;;;8.13;1.00;;;14.10;99.90;;;;;;4958422;28;20049;-71
2022/08/28 03:45:36;;;;;;;4.75;1.02;;;14.10;99.90;;;;;;4971187;28;20030;-70
2022/08/28 03:48:02;;;;;;;4.22;1.10;;;14.10;99.90;;;;;;4985537;28;20046;-70
2022/08/28 03:50:28;;;;;;;2.83;0.98;;;14.10;99.90;;;;;;4986523;28;20434;-69
2022/08/28 03:52:54;;;;;;;4.57;1.38;;;14.00;99.90;;;;;;4983986;28;20042;-70
2022/08/28 03:55:21;;;;;;;7.20;1.00;;;14.00;99.90;;;;;;4984509;28;20034;-71
2022/08/28 03:57:47;;;;;;;7.90;1.73;;;13.90;99.90;;;;;;4985357;28;20417;-70
2022/08/28 04:00:13;;;;;;;4.72;1.25;;;13.90;99.90;;;;;;4985851;28;20042;-72
2022/08/28 04:02:40;;;;;;;4.10;1.00;;;13.90;99.90;;;;;;4985558;28;20038;-70
2022/08/28 04:05:07;;;;;;;8.02;0.80;;;13.90;99.90;;;;;;4984644;28;20041;-70
2022/08/28 04:07:32;;;;;;;3.70;0.80;;;13.90;99.90;;;;;;5017746;28;20100;-70
2022/08/28 04:09:58;;;;;;;4.80;1.15;;;13.80;99.90;;;;;;4989850;28;20042;-70
2022/08/28 04:12:24;;;;;;;6.20;0.73;;;13.80;99.90;;;;;;4979639;28;20030;-70
2022/08/28 04:14:50;;;;;;;3.35;0.88;;;13.80;99.90;;;;;;4978133;28;20030;-72
2022/08/28 04:17:15;;;;;;;4.30;0.82;;;13.80;99.90;;;;;;4976329;28;20765;-71
2022/08/28 04:19:43;;;;;;;3.63;0.95;;;13.80;99.90;;;;;;4991408;28;20085;-69
2022/08/28 04:22:09;;;;;;;5.25;1.10;;;13.80;99.90;;;;;;5010746;28;20038;-71
2022/08/28 04:24:35;;;;;;;4.57;1.00;;;13.70;99.90;;;;;;4977880;28;20041;-71
2022/08/28 04:27:00;;;;;;;4.50;1.42;;;13.70;99.90;;;;;;4985799;28;20050;-71
2022/08/28 04:29:26;;;;;;;3.15;1.25;;;13.70;99.90;;;;;;4980097;28;20031;-70
2022/08/28 04:31:52;;;;;;;6.90;1.08;;;13.70;99.90;;;;;;4977785;28;20108;-71
2022/08/28 04:34:18;;;;;;;5.88;1.50;;;13.70;99.90;;;;;;4984989;28;20038;-71
2022/08/28 04:36:45;;;;;;;3.42;0.85;;;13.60;99.90;;;;;;4987120;28;20041;-71
2022/08/28 04:39:10;;;;;;;8.60;1.58;;;13.60;99.90;;;;;;4984751;28;20495;-70
2022/08/28 04:41:37;;;;;;;7.20;1.58;;;13.50;99.90;;;;;;4976801;28;20046;-71
2022/08/28 04:44:03;;;;;;;6.70;1.25;;;13.60;99.90;;;;;;5010859;28;20086;-71
2022/08/28 04:46:29;;;;;;;4.45;0.90;;;13.50;99.90;;;;;;4978296;28;20050;-70
2022/08/28 04:48:55;;;;;;;5.35;1.15;;;13.50;99.90;;;;;;4980310;28;20061;-70
2022/08/28 04:51:21;;;;;;;6.35;1.30;;;13.50;99.90;;;;;;4984245;28;20080;-71
2022/08/28 04:53:47;;;;;;;4.20;1.27;;;13.50;99.90;;;;;;4978791;28;20134;-70
2022/08/28 04:56:14;;;;;;;4.30;1.00;;;13.50;99.90;;;;;;4980130;28;20050;-69
2022/08/28 04:58:42;;;;;;;3.70;1.30;;;13.50;99.90;;;;;;4975709;28;20089;-70
2022/08/28 05:01:17;;;;;;;6.32;1.00;;;13.50;99.90;;;;;;4979391;28;20042;-70
2022/08/28 05:03:45;;;;;;;3.50;1.23;;;13.50;99.90;;;;;;4984692;28;20065;-71
2022/08/28 05:06:13;;;;;;;4.65;1.15;;;13.40;99.90;;;;;;4979373;28;20038;-71
2022/08/28 05:08:39;;;;;;;4.18;1.20;;;13.50;99.90;;;;;;4983287;28;20118;-70
2022/08/28 05:11:18;;;;;;;4.10;1.00;;;13.50;99.90;;;;;;4983251;28;20043;-70
2022/08/28 05:13:43;;;;;;;4.25;1.23;;;13.50;99.90;;;;;;4980637;28;20613;-68
2022/08/28 05:16:09;;;;;;;3.58;0.88;;;13.50;99.90;;;;;;4980515;28;20041;-71
2022/08/28 05:18:35;;;;;;;6.57;1.20;;;13.50;99.90;;;;;;4976125;28;20078;-71
2022/08/28 05:21:01;;;;;;;4.15;0.90;;;13.50;99.90;;;;;;4980017;28;20380;-70
2022/08/28 05:23:27;;;;;;;5.05;1.00;;;13.50;99.90;;;;;;4981869;28;20039;-69
2022/08/28 05:25:53;;;;;;;4.57;1.17;;;13.50;99.90;;;;;;4994201;28;20046;-70
2022/08/28 05:28:19;;;;;;;5.22;1.20;;;13.60;99.90;;;;;;4982874;28;20038;-71
2022/08/28 05:30:45;;;;;;;2.35;0.88;;;13.60;99.90;;;;;;4979991;28;20603;-70
2022/08/28 05:33:12;;;;;;;2.88;1.48;;;13.60;99.90;;;;;;4979165;28;20965;-70
2022/08/28 05:35:41;;;;;;;6.75;1.25;;;13.70;99.90;;;;;;4978551;28;20066;-71
2022/08/28 05:38:07;;;;;;;4.43;1.05;;;13.70;99.90;;;;;;4978623;28;20035;-71
2022/08/28 05:40:38;;;;;;;6.50;1.38;;;13.70;99.90;;;;;;4979285;28;20026;-70
2022/08/28 05:43:04;;;;;;;6.18;1.30;;;13.80;99.90;;;;;;4973651;28;20411;-70
2022/08/28 05:45:29;;;;;;;5.32;1.15;;;13.80;99.90;;;;;;4985353;28;20035;-70
2022/08/28 05:47:56;;;;;;;3.55;1.05;;;13.90;99.90;;;;;;4974225;28;20062;-71
2022/08/28 05:50:21;;;;;;;5.40;1.17;;;14.00;99.90;;;;;;4977976;28;20031;-70
2022/08/28 05:52:47;;;;;;;5.15;1.17;;;14.00;99.90;;;;;;4975830;28;20505;-71
2022/08/28 05:55:12;;;;;;;3.53;1.30;;;14.10;99.90;;;;;;4976536;28;20491;-70
2022/08/28 05:57:38;;;;;;;4.00;1.15;;;14.20;99.90;;;;;;4977446;28;20092;-71
2022/08/28 06:00:06;;;;;;;5.65;1.00;;;14.30;99.90;;;;;;4975111;28;20043;-69
2022/08/28 06:02:33;;;;;;;2.92;1.20;;;14.40;99.90;;;;;;4980207;28;20056;-70
2022/08/28 06:04:59;;;;;;;4.90;1.25;;;14.40;99.90;;;;;;4975890;28;20069;-69
2022/08/28 06:07:25;;;;;;;2.72;1.00;;;14.50;99.90;;;;;;4980670;28;20569;-71
2022/08/28 06:09:50;;;;;;;5.18;1.17;;;14.70;99.90;;;;;;4977730;28;20039;-70
2022/08/28 06:12:16;;;;;;;5.57;1.35;;;15.00;99.90;;;;;;4977821;28;20042;-72
2022/08/28 06:14:41;;;;;;;7.15;1.40;;;15.40;99.90;;;;;;4979037;28;20525;-71
2022/08/28 06:17:07;;;;;;;4.45;1.25;;;15.70;99.90;;;;;;4977166;28;20073;-72
2022/08/28 06:19:34;;;;;;;3.38;0.77;;;15.80;99.90;;;;;;4979612;28;20043;-70
2022/08/28 06:22:02;;;;;;;2.97;0.85;;;15.90;99.90;;;;;;4978138;28;20396;-70
2022/08/28 06:24:29;;;;;;;8.82;1.30;;;16.00;99.90;;;;;;4981009;28;20034;-71
2022/08/28 06:26:55;;;;;;;3.90;0.90;;;16.10;99.90;;;;;;4981499;28;20027;-71
2022/08/28 06:29:21;;;;;;;6.07;1.15;;;16.30;99.90;;;;;;5012158;28;20057;-70
2022/08/28 06:31:53;;;;;;;3.85;0.80;;;16.40;99.90;;;;;;4979012;28;20034;-70
2022/08/28 06:34:18;;;;;;;3.53;0.70;;;16.80;99.90;;;;;;4977696;28;22038;-71
2022/08/28 06:36:44;;;;;;;15.32;1.90;;;17.40;99.90;;;;;;4974364;28;20038;-72
2022/08/28 06:39:12;;;;;;;4.68;0.50;;;18.50;99.90;;;;;;4976480;28;20027;-72
2022/08/28 06:41:39;;;;;;;2.60;0.80;;;19.80;99.90;;;;;;4978979;28;20042;-71
2022/08/28 06:44:06;;;;;;;4.13;0.70;;;20.90;99.90;;;;;;4978548;28;20058;-72
2022/08/28 06:46:34;;;;;;;1.95;0.98;;;21.80;99.90;;;;;;4975381;28;20069;-70
2022/08/28 06:49:01;;;;;;;2.17;0.70;;;22.90;98.90;;;;;;4978177;28;20096;-72
2022/08/28 06:51:28;;;;;;;5.35;0.75;;;23.70;97.10;;;;;;4975802;28;20034;-70
2022/08/28 06:53:54;;;;;;;4.20;0.52;;;24.30;94.40;;;;;;5009423;28;20514;-71
2022/08/28 06:56:20;;;;;;;1.75;0.73;;;25.10;94.10;;;;;;4975678;28;20050;-73
2022/08/28 06:58:48;;;;;;;6.35;1.55;;;25.60;93.20;;;;;;4976390;28;20606;-70
2022/08/28 07:01:32;;;;;;;6.50;1.27;;;25.60;91.70;;;;;;4976311;28;20038;-71
2022/08/28 07:04:02;;;;;;;5.07;0.75;;;25.10;91.10;;;;;;4977889;28;20034;-71
2022/08/28 07:06:33;;;;;;;2.72;0.47;;;24.00;91.50;;;;;;4975245;28;20574;-71
2022/08/28 07:08:59;;;;;;;1.90;0.82;;;23.00;93.20;;;;;;4977602;28;20035;-69
2022/08/28 07:11:28;;;;;;;7.20;0.80;;;22.40;93.70;;;;;;4973679;28;20112;-71
2022/08/28 07:13:54;;;;;;;2.35;0.75;;;21.80;94.30;;;;;;5008920;28;20026;-68
2022/08/28 07:16:24;;;;;;;1.98;0.70;;;21.40;95.00;;;;;;4974883;28;20034;-68
2022/08/28 07:18:49;;;;;;;3.07;0.57;;;21.10;95.80;;;;;;4977787;28;20030;-69
2022/08/28 07:21:16;;;;;;;3.42;0.70;;;20.70;96.10;;;;;;4980146;28;20367;-68
2022/08/28 07:23:43;;;;;;;4.82;0.50;;;20.50;96.40;;;;;;4980246;28;20403;-70
2022/08/28 07:26:12;;;;;;;7.97;0.85;;;20.30;97.10;;;;;;4982204;28;20045;-69
2022/08/28 07:28:38;;;;;;;2.42;0.47;;;20.20;97.60;;;;;;4984693;28;20284;-71
2022/08/28 07:31:09;;;;;;;2.60;0.85;;;20.10;97.80;;;;;;4984676;28;20195;-69
2022/08/28 07:33:36;;;;;;;5.05;0.70;;;20.10;98.00;;;;;;4984750;28;20038;-70
2022/08/28 07:36:08;;;;;;;6.20;0.85;;;19.90;98.10;;;;;;4984820;28;20035;-69
2022/08/28 07:38:34;;;;;;;5.78;0.82;;;19.90;98.00;;;;;;4985996;28;20034;-69
2022/08/28 07:41:01;;;;;;;3.63;0.50;;;19.80;98.10;;;;;;4983440;28;20034;-71
2022/08/28 07:46:10;;;;;;;6.45;1.42;;;19.80;98.60;;;;;;4983915;28;20040;-70
2022/08/28 07:48:38;;;;;;;7.70;1.20;;;19.80;98.80;;;;;;4986835;28;20038;-70
2022/08/28 07:51:06;;;;;;;5.05;0.95;;;19.80;98.30;;;;;;4989386;28;20034;-71
2022/08/28 07:53:32;;;;;;;3.47;0.63;;;19.70;98.30;;;;;;4988911;28;20052;-69
2022/08/28 07:55:57;;;;;;;1.20;0.63;;;19.70;98.80;;;;;;4986670;28;20042;-69
2022/08/28 07:58:24;;;;;;;5.45;0.70;;;19.80;98.50;;;;;;4988509;28;20026;-70
2022/08/28 08:00:51;;;;;;;7.55;0.80;;;19.70;98.70;;;;;;4989776;28;20027;-69
2022/08/28 08:03:17;;;;;;;1.40;0.38;;;19.70;98.80;;;;;;4990325;28;20287;-67
2022/08/28 08:05:54;;;;;;;2.92;0.50;;;19.80;98.70;;;;;;4993864;28;20161;-70
2022/08/28 08:08:20;;;;;;;2.72;0.52;;;19.80;98.50;;;;;;4991546;28;20560;-69
2022/08/28 08:10:57;;;;;;;4.93;1.02;;;19.80;98.00;;;;;;4992308;28;20088;-70
2022/08/28 08:13:23;;;;;;;1.95;0.60;;;19.90;97.90;;;;;;4988225;28;20779;-70
2022/08/28 08:15:48;;;;;;;6.30;0.77;;;19.90;97.40;;;;;;4991687;28;20121;-68
2022/08/28 08:18:14;;;;;;;3.15;0.47;;;20.00;97.80;;;;;;4991697;28;20085;-69
2022/08/28 08:20:40;;;;;;;2.75;0.30;;;20.00;97.70;;;;;;4990016;28;20022;-69
2022/08/28 08:23:05;;;;;;;2.17;0.38;;;20.10;97.80;;;;;;5021834;28;20120;-68
2022/08/28 08:25:31;;;;;;;1.80;0.55;;;20.30;97.20;;;;;;4993103;28;20048;-69
2022/08/28 08:27:57;;;;;;;3.65;0.70;;;20.50;96.60;;;;;;4989430;28;20117;-69
2022/08/28 08:30:23;;;;;;;5.45;0.95;;;20.50;96.70;;;;;;4989018;28;20045;-70
2022/08/28 08:32:50;;;;;;;2.97;0.63;;;20.50;96.90;;;;;;4988969;28;20042;-71
2022/08/28 08:35:16;;;;;;;4.72;0.57;;;20.50;97.00;;;;;;4989346;28;20494;-70
2022/08/28 08:37:41;;;;;;;4.00;0.60;;;20.50;97.20;;;;;;4989252;28;20048;-68
2022/08/28 08:40:10;;;;;;;1.50;0.43;;;20.50;97.20;;;;;;4987964;28;20046;-71
2022/08/28 08:42:37;;;;;;;5.72;1.00;;;20.30;97.10;;;;;;4980647;28;20403;-69
2022/08/28 08:45:04;;;;;;;0.98;0.20;;;20.30;96.40;;;;;;4980773;28;20053;-71
2022/08/28 08:47:46;;;;;;;2.55;0.40;;;20.30;96.40;;;;;;4984644;28;20053;-71
2022/08/28 08:50:17;;;;;;;7.95;0.85;;;20.40;96.30;;;;;;4983430;28;20049;-71
2022/08/28 08:53:09;;;;;;;4.90;0.68;;;20.50;95.50;;;;;;4981080;28;20044;-71
2022/08/28 08:55:43;;;;;;;3.88;0.30;;;20.60;95.90;;;;;;5009862;28;20097;-70
2022/08/28 08:58:22;;;;;;;3.78;0.32;;;20.60;95.20;;;;;;4991018;28;20042;-71
2022/08/28 09:01:24;;;;;;;2.13;0.43;;;20.60;95.30;;;;;;4984300;28;20037;-71
2022/08/28 09:04:08;;;;;;;2.45;0.43;;;20.70;95.20;;;;;;4983133;28;20541;-70
2022/08/28 09:06:48;;;;;;;1.55;0.30;;;20.80;94.40;;;;;;5004843;28;20034;-70
2022/08/28 09:09:30;;;;;;;1.33;0.70;;;20.80;94.50;;;;;;4982917;28;20034;-71
2022/08/28 09:12:00;;;;;;;2.85;0.50;;;21.00;94.00;;;;;;4982556;28;20441;-72
2022/08/28 09:14:40;;;;;;;2.97;0.60;;;21.30;93.90;;;;;;5013470;28;20031;-71
2022/08/28 09:17:09;;;;;;;1.42;0.30;;;21.50;93.30;;;;;;4978038;28;20053;-71
2022/08/28 09:19:34;;;;;;;2.47;0.30;;;21.60;92.30;;;;;;4980898;28;20384;-71
2022/08/28 09:22:00;;;;;;;5.45;1.35;;;21.60;92.30;;;;;;4981308;28;20049;-72
2022/08/28 09:24:31;;;;;;;4.50;0.52;;;21.50;92.70;;;;;;4976908;28;20031;-71
2022/08/28 09:26:58;;;;;;;;;;;21.70;92.60;;;;;;4987740;28;20462;-71
2022/08/28 09:29:41;;;;;;;1.70;0.35;;;21.50;92.50;;;;;;4979195;28;19988;-71
2022/08/28 09:32:56;;;;;;;3.53;0.30;;;21.50;92.40;;;;;;4978349;28;20447;-71
2022/08/28 09:35:27;;;;;;;1.85;0.70;;;21.40;92.40;;;;;;4982758;28;20042;-70
2022/08/28 09:37:53;;;;;;;4.95;0.68;;;21.30;92.40;;;;;;4977172;28;20035;-71
2022/08/28 09:43:25;;;;;;;2.83;0.30;;;21.20;92.90;;;;;;4979482;28;20481;-70
2022/08/28 09:43:25;;;;;;;1.30;0.20;;;21.30;92.40;;;;;;4978736;28;20046;-71
2022/08/28 09:46:04;;;;;;;1.50;0.38;;;21.60;91.80;;;;;;4982373;28;20439;-69
2022/08/28 09:48:34;;;;;;;2.22;0.40;;;21.80;91.50;;;;;;4976366;28;20046;-71
2022/08/28 09:51:05;;;;;;;;;;;21.80;91.80;;;;;;4976768;28;20516;-69
2022/08/28 09:54:01;;;;;;;3.42;0.40;;;21.80;91.30;;;;;;4975861;28;20401;-69
2022/08/28 09:56:26;;;;;;;5.25;1.15;;;21.90;91.80;;;;;;4980765;28;20065;-70
2022/08/28 09:59:20;;;;;;;3.47;0.65;;;21.90;91.20;;;;;;4979813;28;20043;-69
2022/08/28 10:01:50;;;;;;;1.75;0.50;;;22.00;91.50;;;;;;4980004;28;20038;-73
2022/08/28 10:04:30;;;;;;;2.85;0.50;;;22.00;91.40;;;;;;4978991;28;20065;-71
2022/08/28 10:07:09;;;;;;;1.45;0.28;;;22.10;92.00;;;;;;4979892;28;20038;-70
2022/08/28 10:09:59;;;;;;;1.15;0.30;;;22.10;91.30;;;;;;4978786;28;20034;-72
2022/08/28 10:12:31;;;;;;;2.55;0.30;;;22.10;91.30;;;;;;4983542;28;20410;-71
2022/08/28 10:15:15;;;;;;;3.45;0.30;;;22.10;91.50;;;;;;4987395;28;20551;-71
2022/08/28 10:18:11;;;;;;;4.15;0.40;;;22.20;91.70;;;;;;4976651;28;20038;-69
2022/08/28 10:20:58;;;;;;;1.50;0.40;;;22.30;91.00;;;;;;5003490;28;20042;-69
2022/08/28 10:23:43;;;;;;;5.38;0.40;;;22.40;91.20;;;;;;5014076;28;20042;-70
2022/08/28 10:26:18;;;;;;;3.05;0.57;;;22.30;91.30;;;;;;4986276;28;20033;-70
2022/08/28 10:29:21;;;;;;;1.60;0.30;;;22.40;91.40;;;;;;4979210;28;20039;-70
2022/08/28 10:32:20;;;;;;;2.47;0.40;;;22.40;91.30;;;;;;4978408;28;20042;-70
2022/08/28 10:34:45;;;;;;;1.15;0.57;;;22.40;90.70;;;;;;4979283;28;20037;-70
2022/08/28 10:37:48;;;;;;;3.30;0.40;;;22.40;91.20;;;;;;4978643;28;20042;-71
2022/08/28 10:40:22;;;;;;;7.30;0.40;;;22.40;91.10;;;;;;4978357;28;20046;-69
2022/08/28 10:43:00;;;;;;;2.72;0.85;;;22.50;90.90;;;;;;4979096;28;20113;-70
2022/08/28 10:45:30;;;;;;;2.28;0.32;;;22.30;90.70;;;;;;4978071;28;20523;-70
2022/08/28 10:48:14;;;;;;;1.30;0.20;;;22.20;91.30;;;;;;4977897;28;20096;-70
2022/08/28 10:50:46;;;;;;;2.13;0.63;;;22.30;91.00;;;;;;5009819;28;20402;-68
2022/08/28 10:53:35;;;;;;;2.17;0.75;;;22.30;90.90;;;;;;4981140;28;20042;-69
2022/08/28 10:56:06;;;;;;;4.90;0.68;;;22.20;91.00;;;;;;4960410;28;20046;-73
2022/08/28 10:58:35;;;;;;;3.25;0.40;;;22.20;91.20;;;;;;4956739;28;20031;-70
2022/08/28 11:01:06;;;;;;;0.88;0.30;;;22.10;91.70;;;;;;4953772;28;20045;-70
2022/08/28 11:03:40;;;;;;;3.75;0.70;;;22.20;91.00;;;;;;4955853;28;20031;-70
2022/08/28 11:06:34;;;;;;;0.40;0.10;;;22.20;90.70;;;;;;4954148;28;20027;-70
2022/08/28 11:09:24;;;;;;;2.55;0.32;;;22.10;91.00;;;;;;4987843;28;20563;-71
2022/08/28 11:11:55;;;;;;;3.30;0.45;;;22.10;90.90;;;;;;4958312;28;20035;-71
2022/08/28 11:14:42;;;;;;;2.85;0.55;;;22.00;90.80;;;;;;4956767;28;20251;-73
2022/08/28 11:17:49;;;;;;;1.83;0.40;;;22.00;90.70;;;;;;4957706;28;20122;-67
2022/08/28 11:20:23;;;;;;;1.25;0.20;;;22.00;90.40;;;;;;4958683;28;20030;-71
2022/08/28 11:22:52;;;;;;;2.10;0.50;;;21.90;90.60;;;;;;4985805;28;20086;-73
2022/08/28 11:25:29;;;;;;;1.13;0.40;;;21.80;90.50;;;;;;4993178;28;20093;-72
2022/08/28 11:28:22;;;;;;;1.42;0.40;;;21.80;90.20;;;;;;4959830;28;20035;-72
2022/08/28 11:31:08;;;;;;;2.13;0.57;;;21.80;90.80;;;;;;4954398;28;20032;-70
2022/08/28 11:33:39;;;;;;;1.40;0.22;;;21.80;90.30;;;;;;4956189;28;20476;-72
2022/08/28 11:36:09;;;;;;;;;;;21.90;90.40;;;;;;4985604;28;20043;-72
2022/08/28 11:38:40;;;;;;;3.13;0.40;;;22.00;90.70;;;;;;4952782;28;19914;-72
2022/08/28 11:41:19;;;;;;;0.50;0.10;;;22.20;90.80;;;;;;4952539;28;20175;-72
2022/08/28 11:43:47;;;;;;;1.92;0.47;;;22.20;90.60;;;;;;4985508;28;20031;-71
2022/08/28 11:46:15;;;;;;;3.15;0.43;;;22.10;90.60;;;;;;4956237;28;20077;-70
2022/08/28 11:48:49;;;;;;;3.38;0.30;;;22.00;90.50;;;;;;4954531;28;20042;-70
2022/08/28 11:51:30;;;;;;;2.55;0.28;;;22.10;90.40;;;;;;4956763;28;20042;-71
2022/08/28 11:54:08;;;;;;;1.30;0.20;;;22.00;90.40;;;;;;4963927;28;20031;-71
2022/08/28 11:56:36;;;;;;;3.20;0.47;;;21.90;90.50;;;;;;4964241;28;20038;-71
2022/08/28 11:59:36;;;;;;;1.50;0.20;;;21.90;90.70;;;;;;4963285;28;20047;-71
2022/08/28 12:02:40;;;;;;;0.55;0.30;;;21.80;90.70;;;;;;4958049;28;20097;-70
2022/08/28 12:05:30;;;;;;;2.83;0.43;;;21.80;90.50;;;;;;4951817;28;20042;-72
2022/08/28 12:07:58;;;;;;;3.38;0.68;;;21.80;90.40;;;;;;4983768;28;20039;-71
2022/08/28 12:10:26;;;;;;;4.28;0.40;;;21.80;91.00;;;;;;4958331;28;20041;-70
2022/08/28 12:12:54;;;;;;;3.35;0.50;;;21.90;90.00;;;;;;4954184;28;20094;-71
2022/08/28 12:15:28;;;;;;;1.73;0.38;;;21.90;90.20;;;;;;4985748;28;20122;-71
2022/08/28 12:18:12;;;;;;;6.00;0.85;;;21.90;90.80;;;;;;4985899;28;20507;-70
2022/08/28 12:20:58;;;;;;;3.33;1.33;;;22.00;90.60;;;;;;4981824;28;20043;-71
2022/08/28 12:24:02;;;;;;;1.48;0.82;;;22.00;90.50;;;;;;4956711;28;20035;-69
2022/08/28 12:26:37;;;;;;;1.30;0.20;;;22.00;90.10;;;;;;4962171;28;20045;-71
2022/08/28 12:29:44;;;;;;;1.55;0.40;;;21.90;89.20;;;;;;4962344;28;20058;-71
2022/08/28 12:32:41;;;;;;;1.52;0.20;;;21.90;89.60;;;;;;4956027;28;20485;-70
2022/08/28 12:35:28;;;;;;;2.95;0.63;;;21.90;90.00;;;;;;4956229;28;20043;-70
2022/08/28 12:37:54;;;;;;;2.20;0.70;;;22.00;89.90;;;;;;4955702;28;20507;-71
2022/08/28 12:40:23;;;;;;;0.63;0.15;;;21.90;88.30;;;;;;4956898;28;20047;-69
2022/08/28 12:43:01;;;;;;;1.55;0.55;;;21.80;89.70;;;;;;4954218;28;20126;-71
2022/08/28 12:45:38;;;;;;;3.58;0.30;;;21.60;90.10;;;;;;4954908;28;20039;-70
2022/08/28 12:48:24;;;;;;;2.05;0.60;;;21.60;90.30;;;;;;4964241;28;20046;-71
2022/08/28 12:51:18;;;;;;;1.80;0.32;;;21.80;90.00;;;;;;4959184;28;20050;-70
2022/08/28 12:53:47;;;;;;;2.08;0.30;;;21.80;90.00;;;;;;4959430;28;20054;-70
2022/08/28 12:56:16;;;;;;;4.82;0.45;;;21.80;90.40;;;;;;4956262;28;20042;-70
2022/08/28 12:58:42;;;;;;;0.80;0.20;;;21.90;89.50;;;;;;4958239;28;20080;-69
2022/08/28 13:01:20;;;;;;;3.75;0.20;;;21.90;89.00;;;;;;4959774;28;20031;-70
2022/08/28 13:03:52;;;;;;;1.88;0.28;;;22.00;88.60;;;;;;4957025;28;20062;-70
2022/08/28 13:06:36;;;;;;;2.22;0.75;;;22.00;86.90;;;;;;4961695;28;20062;-71
2022/08/28 13:09:12;;;;;;;2.38;0.73;;;22.00;86.80;;;;;;4959445;28;20043;-71
2022/08/28 13:11:44;;;;;;;1.30;0.32;;;22.00;84.50;;;;;;4960444;28;20038;-69